createdAt,value
2023-04-02T00:00:13.839Z,101190.50
2023-04-02T00:02:51.442Z,101196.32
2023-04-02T00:05:34.862Z,101197.91
2023-04-02T00:08:10.424Z,101198.00
2023-04-02T00:10:57.832Z,101205.37
2023-04-02T00:13:33.402Z,101208.27
2023-04-02T00:16:05.561Z,101216.32
2023-04-02T00:18:37.309Z,101222.47
2023-04-02T00:21:24.222Z,101227.34
2023-04-02T00:23:56.030Z,101224.45
2023-04-02T00:26:33.666Z,101233.52
2023-04-02T00:29:04.977Z,101239.38
2023-04-02T00:31:35.025Z,101242.86
2023-04-02T00:34:12.251Z,101244.89
2023-04-02T00:36:43.711Z,101245.17
2023-04-02T00:39:16.245Z,101256.48
2023-04-02T00:41:46.583Z,101263.48
2023-04-02T00:44:22.219Z,101264.22
2023-04-02T00:46:52.889Z,101276.84
2023-04-02T00:49:25.769Z,101273.95
2023-04-02T00:52:00.410Z,101275.62
2023-04-02T00:54:32.408Z,101279.73
2023-04-02T00:57:02.810Z,101283.74
2023-04-02T00:59:37.667Z,101279.45
2023-04-02T01:02:19.195Z,101288.21
2023-04-02T01:05:00.374Z,101288.21
2023-04-02T01:07:42.351Z,101290.19
2023-04-02T01:10:36.005Z,101297.73
2023-04-02T01:13:27.640Z,101296.05
2023-04-02T01:16:08.925Z,101303.41
2023-04-02T01:18:58.185Z,101312.47
2023-04-02T01:21:51.597Z,101322.17
2023-04-02T01:24:22.227Z,101328.53
2023-04-02T01:26:57.960Z,101329.83
2023-04-02T01:29:44.998Z,101334.29
2023-04-02T01:32:16.594Z,101344.97
2023-04-02T01:34:47.647Z,101342.63
2023-04-02T01:37:23.295Z,101347.00
2023-04-02T01:40:17.724Z,101343.62
2023-04-02T01:42:58.915Z,101354.06
2023-04-02T01:45:29.819Z,101359.28
2023-04-02T01:47:59.624Z,101370.00
2023-04-02T01:50:32.489Z,101372.13
2023-04-02T01:53:05.320Z,101371.68
2023-04-02T01:55:41.238Z,101372.13
2023-04-02T01:58:13.355Z,101375.14
2023-04-02T02:00:56.168Z,101380.55
2023-04-02T02:03:26.235Z,101383.33
2023-04-02T02:05:56.320Z,101379.09
2023-04-02T02:08:34.924Z,101390.86
2023-04-02T02:11:05.827Z,101397.11
2023-04-02T02:13:35.399Z,101397.11
2023-04-02T02:16:06.057Z,101401.40
2023-04-02T02:18:35.656Z,101405.66
2023-04-02T02:21:06.619Z,101415.86
2023-04-02T02:23:36.400Z,101413.64
2023-04-02T02:26:07.118Z,101413.73
2023-04-02T02:28:39.176Z,101423.45
2023-04-02T02:31:13.041Z,101421.48
2023-04-02T02:33:45.978Z,101426.80
2023-04-02T02:36:26.138Z,101437.08
2023-04-02T02:38:57.665Z,101442.33
2023-04-02T02:41:46.139Z,101444.26
2023-04-02T02:44:19.266Z,101440.13
2023-04-02T02:47:02.698Z,101455.81
2023-04-02T02:49:35.400Z,101452.06
2023-04-02T02:52:11.456Z,101467.91
2023-04-02T02:54:51.220Z,101467.45
2023-04-02T02:57:23.967Z,101481.91
2023-04-02T02:59:52.910Z,101486.36
2023-04-02T03:02:22.313Z,101491.05
2023-04-02T03:04:53.182Z,101493.66
2023-04-02T03:07:26.542Z,101497.79
2023-04-02T03:10:20.993Z,101504.11
2023-04-02T03:12:59.387Z,101509.02
2023-04-02T03:15:38.373Z,101522.16
2023-04-02T03:18:29.407Z,101523.62
2023-04-02T03:21:05.128Z,101528.48
2023-04-02T03:23:37.267Z,101530.23
2023-04-02T03:26:19.161Z,101537.99
2023-04-02T03:28:52.378Z,101545.45
2023-04-02T03:31:36.438Z,101547.45
2023-04-02T03:34:21.259Z,101548.97
2023-04-02T03:37:21.873Z,101562.36
2023-04-02T03:39:56.738Z,101563.91
2023-04-02T03:42:29.791Z,101565.36
2023-04-02T03:45:09.982Z,101571.12
2023-04-02T03:48:06.643Z,101572.27
2023-04-02T03:50:48.703Z,101572.27
2023-04-02T03:53:18.172Z,101583.72
2023-04-02T03:55:48.111Z,101594.48
2023-04-02T03:58:23.920Z,101598.23
2023-04-02T04:01:03.102Z,101602.41
2023-04-02T04:03:40.998Z,101611.73
2023-04-02T04:06:27.960Z,101621.66
2023-04-02T04:09:03.828Z,101622.90
2023-04-02T04:11:35.932Z,101633.04
2023-04-02T04:14:19.905Z,101644.31
2023-04-02T04:17:01.946Z,101646.63
2023-04-02T04:19:57.322Z,101649.91
2023-04-02T04:22:32.874Z,101658.19
2023-04-02T04:25:25.431Z,101655.80
2023-04-02T04:27:56.745Z,101664.72
2023-04-02T04:30:29.128Z,101670.38
2023-04-02T04:33:05.709Z,101673.52
2023-04-02T04:35:40.609Z,101677.64
2023-04-02T04:38:15.633Z,101686.59
2023-04-02T04:40:52.145Z,101686.66
2023-04-02T04:43:42.860Z,101690.41
2023-04-02T04:46:15.377Z,101698.31
2023-04-02T04:49:09.004Z,101700.56
2023-04-02T04:51:42.045Z,101703.24
2023-04-02T04:54:14.202Z,101705.13
2023-04-02T04:56:52.667Z,101716.22
2023-04-02T04:59:25.803Z,101721.64
2023-04-02T05:02:02.998Z,101725.80
2023-04-02T05:04:43.796Z,101721.27
2023-04-02T05:07:23.571Z,101726.65
2023-04-02T05:09:56.722Z,101735.47
2023-04-02T05:12:35.335Z,101740.76
2023-04-02T05:15:09.314Z,101750.85
2023-04-02T05:17:49.048Z,101749.82
2023-04-02T05:20:30.729Z,101761.08
2023-04-02T05:23:13.300Z,101763.83
2023-04-02T05:26:12.064Z,101770.34
2023-04-02T05:28:53.009Z,101782.43
2023-04-02T05:31:29.186Z,101786.06
2023-04-02T05:33:59.549Z,101786.79
2023-04-02T05:36:30.568Z,101800.96
2023-04-02T05:39:01.518Z,101798.59
2023-04-02T05:41:45.426Z,101803.05
2023-04-02T05:44:28.125Z,101810.33
2023-04-02T05:46:59.267Z,101813.55
2023-04-02T05:49:39.235Z,101818.89
2023-04-02T05:52:15.754Z,101821.30
2023-04-02T05:55:08.072Z,101825.92
2023-04-02T05:57:45.856Z,101833.81
2023-04-02T06:00:17.543Z,101834.19
2023-04-02T06:03:00.365Z,101851.56
2023-04-02T06:05:33.201Z,101852.45
2023-04-02T06:08:12.024Z,101857.03
2023-04-02T06:10:56.421Z,101862.50
2023-04-02T06:13:28.870Z,101863.78
2023-04-02T06:15:58.708Z,101876.59
2023-04-02T06:18:31.701Z,101878.78
2023-04-02T06:21:01.868Z,101892.30
2023-04-02T06:23:42.790Z,101893.98
2023-04-02T06:26:31.382Z,101894.44
2023-04-02T06:29:18.510Z,101907.16
2023-04-02T06:31:58.232Z,101910.45
2023-04-02T06:34:30.213Z,101919.08
2023-04-02T06:37:22.135Z,101924.28
2023-04-02T06:39:53.379Z,101928.96
2023-04-02T06:42:28.330Z,101940.19
2023-04-02T06:45:06.518Z,101941.74
2023-04-02T06:47:46.971Z,101947.88
2023-04-02T06:50:24.234Z,101949.61
2023-04-02T06:52:56.162Z,101954.95
2023-04-02T06:55:43.408Z,101958.50
2023-04-02T06:58:12.931Z,101956.38
2023-04-02T07:00:44.434Z,101965.14
2023-04-02T07:03:27.551Z,101966.61
2023-04-02T07:05:59.629Z,101972.81
2023-04-02T07:08:28.997Z,101973.19
2023-04-02T07:10:58.679Z,101978.09
2023-04-02T07:13:28.435Z,101996.48
2023-04-02T07:15:58.529Z,102003.33
2023-04-02T07:18:34.070Z,102008.67
2023-04-02T07:21:05.182Z,102016.20
2023-04-02T07:23:34.879Z,102017.05
2023-04-02T07:26:04.905Z,102033.41
2023-04-02T07:28:35.013Z,102036.34
2023-04-02T07:31:04.318Z,102035.87
2023-04-02T07:33:33.638Z,102051.93
2023-04-02T07:36:03.278Z,102049.63
2023-04-02T07:38:32.580Z,102056.43
2023-04-02T07:41:06.834Z,102061.40
2023-04-02T07:43:36.422Z,102068.61
2023-04-02T07:46:06.754Z,102076.25
2023-04-02T07:48:36.552Z,102076.25
2023-04-02T07:51:07.108Z,102077.71
2023-04-02T07:53:38.664Z,102085.76
2023-04-02T07:56:09.288Z,102087.20
2023-04-02T07:58:38.699Z,102084.45
2023-04-02T08:01:11.356Z,102097.49
2023-04-02T08:03:41.505Z,102103.63
2023-04-02T08:06:11.846Z,102108.55
2023-04-02T08:08:41.275Z,102116.62
2023-04-02T08:11:10.924Z,102118.67
2023-04-02T08:13:40.871Z,102126.47
2023-04-02T08:16:10.770Z,102129.77
2023-04-02T08:18:40.559Z,102126.17
2023-04-02T08:21:11.316Z,102129.55
2023-04-02T08:23:40.690Z,102135.34
2023-04-02T08:26:10.038Z,102146.89
2023-04-02T08:28:39.301Z,102152.14
2023-04-02T08:31:09.309Z,102155.39
2023-04-02T08:33:38.678Z,102168.02
2023-04-02T08:36:08.552Z,102166.30
2023-04-02T08:38:37.842Z,102172.27
2023-04-02T08:41:07.192Z,102171.77
2023-04-02T08:43:42.130Z,102180.67
2023-04-02T08:46:23.956Z,102190.26
2023-04-02T08:48:56.963Z,102188.28
2023-04-02T08:51:29.561Z,102195.99
2023-04-02T08:53:59.730Z,102200.08
2023-04-02T08:56:32.346Z,102204.53
2023-04-02T08:59:04.123Z,102211.62
2023-04-02T09:01:49.118Z,102212.84
2023-04-02T09:04:21.906Z,102217.18
2023-04-02T09:06:53.481Z,102228.19
2023-04-02T09:09:23.980Z,102229.75
2023-04-02T09:12:03.050Z,102231.82
2023-04-02T09:14:43.883Z,102230.70
2023-04-02T09:17:19.179Z,102230.39
2023-04-02T09:20:08.407Z,102234.80
2023-04-02T09:22:38.399Z,102238.98
2023-04-02T09:25:11.459Z,102243.99
2023-04-02T09:27:40.701Z,102244.59
2023-04-02T09:30:34.071Z,102259.06
2023-04-02T09:33:06.597Z,102259.36
2023-04-02T09:35:36.057Z,102266.93
2023-04-02T09:38:24.003Z,102263.34
2023-04-02T09:40:57.075Z,102275.67
2023-04-02T09:43:29.537Z,102271.14
2023-04-02T09:46:08.358Z,102274.42
2023-04-02T09:48:43.936Z,102278.66
2023-04-02T09:51:21.918Z,102287.53
2023-04-02T09:53:55.797Z,102294.98
2023-04-02T09:56:26.523Z,102296.00
2023-04-02T09:59:17.092Z,102305.36
2023-04-02T10:01:58.183Z,102305.08
2023-04-02T10:04:44.632Z,102310.45
2023-04-02T10:07:45.953Z,102321.36
2023-04-02T10:10:27.786Z,102326.63
2023-04-02T10:13:00.347Z,102330.28
2023-04-02T10:15:30.728Z,102335.33
2023-04-02T10:18:12.088Z,102345.26
2023-04-02T10:20:51.035Z,102344.96
2023-04-02T10:23:18.101Z,102339.02
2023-04-02T10:25:57.521Z,102341.89
2023-04-02T10:28:45.263Z,102347.58
2023-04-02T10:31:26.146Z,102352.11
2023-04-02T10:33:58.623Z,102363.53
2023-04-02T10:36:40.174Z,102373.89
2023-04-02T10:39:31.366Z,102380.53
2023-04-02T10:42:03.883Z,102371.59
2023-04-02T10:44:40.092Z,102379.39
2023-04-02T10:47:25.716Z,102386.36
2023-04-02T10:50:29.738Z,102389.70
2023-04-02T10:53:14.249Z,102397.44
2023-04-02T10:55:52.542Z,102401.78
2023-04-02T10:58:24.757Z,102407.97
2023-04-02T11:01:02.718Z,102407.23
2023-04-02T11:03:35.222Z,102409.84
2023-04-02T11:06:09.699Z,102417.83
2023-04-02T11:08:48.353Z,102427.84
2023-04-02T11:11:23.798Z,102438.75
2023-04-02T11:14:26.149Z,102442.78
2023-04-02T11:16:58.093Z,102441.59
2023-04-02T11:19:30.603Z,102445.65
2023-04-02T11:22:01.465Z,102450.98
2023-04-02T11:24:44.794Z,102452.28
2023-04-02T11:27:29.100Z,102459.67
2023-04-02T11:30:04.387Z,102460.81
2023-04-02T11:32:39.713Z,102464.37
2023-04-02T11:35:33.852Z,102466.27
2023-04-02T11:38:06.783Z,102470.29
2023-04-02T11:41:01.510Z,102475.42
2023-04-02T11:43:41.393Z,102481.04
2023-04-02T11:46:33.442Z,102478.71
2023-04-02T11:49:22.441Z,102479.52
2023-04-02T11:51:59.219Z,102485.38
2023-04-02T11:54:24.824Z,102475.41
2023-04-02T11:56:57.328Z,102481.14
2023-04-02T11:59:30.560Z,102471.30
2023-04-02T12:02:03.418Z,102471.84
2023-04-02T12:04:44.754Z,102481.63
2023-04-02T12:07:17.927Z,102468.82
2023-04-02T12:09:56.132Z,102474.91
2023-04-02T12:12:28.039Z,102473.61
2023-04-02T12:14:59.129Z,102476.11
2023-04-02T12:17:39.361Z,102487.16
2023-04-02T12:20:13.694Z,102485.97
2023-04-02T12:22:48.254Z,102486.63
2023-04-02T12:25:23.304Z,102490.85
2023-04-02T12:28:14.454Z,102491.23
2023-04-02T12:30:43.918Z,102498.95
2023-04-02T12:33:25.138Z,102492.61
2023-04-02T12:35:57.794Z,102493.83
2023-04-02T12:38:32.320Z,102493.56
2023-04-02T12:41:04.831Z,102498.43
2023-04-02T12:43:37.864Z,102495.98
2023-04-02T12:46:08.566Z,102495.47
2023-04-02T12:48:38.460Z,102499.48
2023-04-02T12:51:07.928Z,102494.36
2023-04-02T12:53:39.900Z,102491.31
2023-04-02T12:56:09.636Z,102491.33
2023-04-02T12:58:42.745Z,102488.27
2023-04-02T13:01:14.659Z,102502.09
2023-04-02T13:03:44.126Z,102492.67
2023-04-02T13:06:17.274Z,102488.31
2023-04-02T13:08:46.903Z,102483.29
2023-04-02T13:11:16.332Z,102494.95
2023-04-02T13:13:46.993Z,102495.94
2023-04-02T13:16:19.644Z,102491.02
2023-04-02T13:18:50.248Z,102495.45
2023-04-02T13:21:28.117Z,102492.05
2023-04-02T13:23:57.528Z,102501.37
2023-04-02T13:26:28.964Z,102491.78
2023-04-02T13:29:07.445Z,102505.55
2023-04-02T13:31:37.074Z,102508.27
2023-04-02T13:34:06.513Z,102505.81
2023-04-02T13:36:37.216Z,102502.34
2023-04-02T13:39:06.836Z,102502.66
2023-04-02T13:41:39.272Z,102503.39
2023-04-02T13:44:10.660Z,102505.13
2023-04-02T13:46:39.920Z,102510.80
2023-04-02T13:49:11.715Z,102510.70
2023-04-02T13:51:44.573Z,102513.52
2023-04-02T13:54:17.246Z,102517.48
2023-04-02T13:56:46.699Z,102514.83
2023-04-02T13:59:16.519Z,102512.34
2023-04-02T14:01:47.674Z,102507.44
2023-04-02T14:04:22.932Z,102518.47
2023-04-02T14:07:13.638Z,102521.63
2023-04-02T14:10:03.885Z,102527.52
2023-04-02T14:13:01.746Z,102529.52
2023-04-02T14:15:57.787Z,102531.53
2023-04-02T14:18:33.109Z,102542.36
2023-04-02T14:21:05.606Z,102547.41
2023-04-02T14:23:44.148Z,102548.73
2023-04-02T14:26:19.272Z,102550.33
2023-04-02T14:28:53.519Z,102549.63
2023-04-02T14:31:35.047Z,102552.84
2023-04-02T14:34:16.324Z,102554.14
2023-04-02T14:36:55.940Z,102553.52
2023-04-02T14:39:43.327Z,102557.66
2023-04-02T14:42:17.171Z,102554.80
2023-04-02T14:44:53.033Z,102559.87
2023-04-02T14:47:25.786Z,102557.25
2023-04-02T14:49:58.175Z,102562.11
2023-04-02T14:52:29.589Z,102557.45
2023-04-02T14:55:05.300Z,102564.76
2023-04-02T14:57:37.003Z,102566.32
2023-04-02T15:00:28.035Z,102559.25
2023-04-02T15:03:11.681Z,102568.08
2023-04-02T15:05:48.968Z,102560.34
2023-04-02T15:08:29.808Z,102571.02
2023-04-02T15:11:08.551Z,102576.48
2023-04-02T15:13:43.976Z,102572.34
2023-04-02T15:16:20.681Z,102576.08
2023-04-02T15:19:00.826Z,102568.78
2023-04-02T15:21:55.616Z,102566.61
2023-04-02T15:24:19.065Z,102573.70
2023-04-02T15:27:27.332Z,102576.04
2023-04-02T15:30:17.691Z,102580.30
2023-04-02T15:32:48.944Z,102580.48
2023-04-02T15:35:31.527Z,102582.97
2023-04-02T15:38:22.698Z,102575.20
2023-04-02T15:41:01.286Z,102580.55
2023-04-02T15:43:39.231Z,102578.47
2023-04-02T15:46:23.164Z,102589.06
2023-04-02T15:49:14.024Z,102581.23
2023-04-02T15:52:02.758Z,102592.65
2023-04-02T15:54:54.840Z,102589.64
2023-04-02T15:57:43.652Z,102592.36
2023-04-02T16:00:31.159Z,102598.26
2023-04-02T16:03:20.995Z,102603.06
2023-04-02T16:06:02.076Z,102610.59
2023-04-02T16:08:46.892Z,102609.74
2023-04-02T16:11:16.773Z,102616.11
2023-04-02T16:13:47.431Z,102614.61
2023-04-02T16:16:35.078Z,102609.89
2023-04-02T16:19:20.833Z,102617.42
2023-04-02T16:21:56.684Z,102612.53
2023-04-02T16:24:26.412Z,102618.98
2023-04-02T16:26:58.477Z,102612.03
2023-04-02T16:29:54.332Z,102617.17
2023-04-02T16:32:28.140Z,102620.17
2023-04-02T16:35:41.031Z,102618.18
2023-04-02T16:38:07.161Z,102618.77
2023-04-02T16:41:00.570Z,102622.04
2023-04-02T16:43:37.844Z,102630.11
2023-04-02T16:49:03.548Z,102648.21
2023-04-02T16:51:47.840Z,102646.53
2023-04-02T16:54:26.315Z,102652.19
2023-04-02T16:57:18.319Z,102652.02
2023-04-02T16:59:53.605Z,102648.01
2023-04-02T17:02:46.115Z,102656.34
2023-04-02T17:05:37.008Z,102659.84
2023-04-02T17:08:23.927Z,102663.52
2023-04-02T17:11:02.374Z,102673.17
2023-04-02T17:13:43.157Z,102671.08
2023-04-02T17:16:21.848Z,102679.41
2023-04-02T17:18:53.467Z,102686.36
2023-04-02T17:21:26.428Z,102691.91
2023-04-02T17:23:59.132Z,102692.73
2023-04-02T17:26:30.516Z,102700.38
2023-04-02T17:29:02.705Z,102700.96
2023-04-02T17:31:35.187Z,102702.30
2023-04-02T17:34:11.264Z,102710.59
2023-04-02T17:36:49.369Z,102716.41
2023-04-02T17:39:38.657Z,102710.12
2023-04-02T17:42:23.134Z,102709.85
2023-04-02T17:44:56.121Z,102719.38
2023-04-02T17:47:31.359Z,102723.68
2023-04-02T17:50:20.165Z,102725.56
2023-04-02T17:53:09.918Z,102730.50
2023-04-02T17:55:45.118Z,102733.73
2023-04-02T17:58:17.803Z,102736.86
2023-04-02T18:01:09.845Z,102740.12
2023-04-02T18:03:49.387Z,102753.90
2023-04-02T18:06:24.050Z,102755.45
2023-04-02T18:09:16.370Z,102757.46
2023-04-02T18:11:51.618Z,102768.13
2023-04-02T18:14:46.785Z,102773.67
2023-04-02T18:17:22.003Z,102773.17
2023-04-02T18:19:54.514Z,102778.02
2023-04-02T18:22:33.100Z,102782.69
2023-04-02T18:25:27.454Z,102789.80
2023-04-02T18:28:15.173Z,102790.86
2023-04-02T18:31:04.304Z,102796.91
2023-04-02T18:34:02.856Z,102802.87
2023-04-02T18:36:47.509Z,102803.59
2023-04-02T18:39:23.266Z,102809.72
2023-04-02T18:41:58.668Z,102815.20
2023-04-02T18:44:38.693Z,102820.48
2023-04-02T18:47:17.330Z,102819.69
2023-04-02T18:49:53.058Z,102826.74
2023-04-02T18:52:23.326Z,102831.78
2023-04-02T18:55:02.147Z,102835.17
2023-04-02T18:57:34.120Z,102837.34
2023-04-02T19:00:28.120Z,102840.69
2023-04-02T19:03:09.827Z,102841.22
2023-04-02T19:06:03.362Z,102844.11
2023-04-02T19:08:39.254Z,102850.14
2023-04-02T19:11:14.211Z,102854.33
2023-04-02T19:13:45.090Z,102851.03
2023-04-02T19:16:46.343Z,102861.69
2023-04-02T19:19:28.018Z,102862.60
2023-04-02T19:22:16.619Z,102869.47
2023-04-02T19:25:04.617Z,102871.83
2023-04-02T19:27:40.126Z,102873.17
2023-04-02T19:30:28.765Z,102870.04
2023-04-02T19:33:16.343Z,102877.65
2023-04-02T19:36:01.230Z,102869.91
2023-04-02T19:38:59.478Z,102871.99
2023-04-02T19:41:48.445Z,102881.29
2023-04-02T19:44:18.490Z,102889.72
2023-04-02T19:46:48.694Z,102882.88
2023-04-02T19:49:23.133Z,102892.13
2023-04-02T19:51:53.681Z,102891.81
2023-04-02T19:54:23.731Z,102892.02
2023-04-02T19:56:53.046Z,102889.52
2023-04-02T19:59:22.589Z,102901.01
2023-04-02T20:01:52.120Z,102901.80
2023-04-02T20:04:21.452Z,102901.73
2023-04-02T20:06:51.843Z,102900.42
2023-04-02T20:09:21.526Z,102906.98
2023-04-02T20:11:50.889Z,102906.81
2023-04-02T20:14:20.339Z,102910.64
2023-04-02T20:16:49.775Z,102908.33
2023-04-02T20:19:19.059Z,102908.75
2023-04-02T20:21:48.401Z,102910.69
2023-04-02T20:24:17.891Z,102917.38
2023-04-02T20:26:47.172Z,102917.06
2023-04-02T20:29:16.958Z,102925.37
2023-04-02T20:31:46.293Z,102930.38
2023-04-02T20:34:15.852Z,102935.02
2023-04-02T20:36:45.994Z,102936.50
2023-04-02T20:39:17.004Z,102932.99
2023-04-02T20:41:48.221Z,102942.88
2023-04-02T20:44:17.548Z,102942.69
2023-04-02T20:46:47.031Z,102948.83
2023-04-02T20:49:16.666Z,102952.53
2023-04-02T20:51:47.826Z,102948.06
2023-04-02T20:54:17.268Z,102961.45
2023-04-02T20:56:46.580Z,102959.66
2023-04-02T20:59:15.861Z,102969.33
2023-04-02T21:01:46.132Z,102966.39
2023-04-02T21:04:15.577Z,102969.77
2023-04-02T21:06:45.261Z,102979.93
2023-04-02T21:09:19.617Z,102976.27
2023-04-02T21:11:48.949Z,102978.23
2023-04-02T21:14:19.033Z,102980.03
2023-04-02T21:16:48.347Z,102981.36
2023-04-02T21:19:18.052Z,102977.95
2023-04-02T21:21:47.778Z,102983.09
2023-04-02T21:24:17.037Z,102986.11
2023-04-02T21:26:46.486Z,102983.88
2023-04-02T21:29:15.884Z,102984.41
2023-04-02T21:31:45.628Z,102979.06
2023-04-02T21:34:16.914Z,102980.09
2023-04-02T21:36:48.223Z,102989.67
2023-04-02T21:39:20.729Z,102987.59
2023-04-02T21:41:53.374Z,102991.72
2023-04-02T21:44:24.182Z,102992.03
2023-04-02T21:46:54.630Z,102983.22
2023-04-02T21:49:26.290Z,102994.64
2023-04-02T21:51:56.136Z,102994.05
2023-04-02T21:54:25.748Z,102996.84
2023-04-02T21:56:55.506Z,102990.14
2023-04-02T21:59:24.813Z,102995.09
2023-04-02T22:01:54.545Z,102998.17
2023-04-02T22:04:28.739Z,103002.88
2023-04-02T22:06:58.309Z,103007.20
2023-04-02T22:09:27.752Z,103003.09
2023-04-02T22:12:02.299Z,103005.02
2023-04-02T22:14:31.890Z,103014.73
2023-04-02T22:17:01.855Z,103022.12
2023-04-02T22:19:33.006Z,103016.87
2023-04-02T22:22:02.668Z,103016.03
2023-04-02T22:24:32.081Z,103011.66
2023-04-02T22:27:01.612Z,103015.23
2023-04-02T22:29:30.901Z,103013.30
2023-04-02T22:32:00.491Z,103014.48
2023-04-02T22:34:29.961Z,103014.27
2023-04-02T22:37:00.050Z,103020.35
2023-04-02T22:39:29.296Z,103020.75
2023-04-02T22:41:59.310Z,103016.00
2023-04-02T22:44:28.555Z,103015.58
2023-04-02T22:46:57.991Z,103012.63
2023-04-02T22:49:27.245Z,103011.70
2023-04-02T22:51:56.851Z,103012.47
2023-04-02T22:54:26.080Z,103006.59
2023-04-02T22:56:55.680Z,103010.56
2023-04-02T22:59:24.897Z,103014.55
2023-04-02T23:01:54.266Z,103016.78
2023-04-02T23:04:23.609Z,103017.65
2023-04-02T23:06:52.975Z,103018.09
2023-04-02T23:09:22.226Z,103019.91
2023-04-02T23:11:51.776Z,103022.91
2023-04-02T23:14:21.273Z,103027.47
2023-04-02T23:16:50.675Z,103019.34
2023-04-02T23:19:20.020Z,103027.20
2023-04-02T23:21:49.671Z,103027.06
2023-04-02T23:24:18.921Z,103033.37
2023-04-02T23:26:48.235Z,103032.62
2023-04-02T23:29:17.526Z,103036.03
2023-04-02T23:31:47.369Z,103031.77
2023-04-02T23:34:16.804Z,103033.50
2023-04-02T23:36:46.566Z,103036.16
2023-04-02T23:39:16.094Z,103031.97
2023-04-02T23:41:45.692Z,103036.31
2023-04-02T23:44:15.585Z,103035.52
2023-04-02T23:46:44.891Z,103040.14
2023-04-02T23:49:14.416Z,103036.64
2023-04-02T23:51:43.708Z,103035.78
2023-04-02T23:54:13.833Z,103034.88
2023-04-02T23:56:43.612Z,103038.02
2023-04-02T23:59:13.160Z,103034.19
